createdAt,value
2019-01-15T00:01:14.853Z,2.10
2019-01-15T00:03:42.412Z,1.87
2019-01-15T00:06:09.656Z,1.97
2019-01-15T00:08:37.276Z,2.17
2019-01-15T00:11:04.572Z,2.10
2019-01-15T00:13:32.141Z,2.40
2019-01-15T00:15:59.483Z,2.33
2019-01-15T00:18:26.728Z,2.10
2019-01-15T00:20:54.504Z,2.70
2019-01-15T00:23:21.775Z,1.97
2019-01-15T00:25:49.109Z,2.70
2019-01-15T00:28:16.372Z,2.23
2019-01-15T00:30:43.705Z,2.47
2019-01-15T00:33:10.957Z,2.40
2019-01-15T00:35:38.193Z,2.17
2019-01-15T00:38:05.464Z,2.30
2019-01-15T00:40:32.785Z,2.30
2019-01-15T00:43:00.381Z,2.27
2019-01-15T00:45:27.937Z,2.50
2019-01-15T00:47:55.405Z,2.10
2019-01-15T00:50:22.965Z,2.53
2019-01-15T00:52:50.226Z,2.27
2019-01-15T00:55:17.458Z,2.37
2019-01-15T00:57:45.025Z,2.40
2019-01-15T01:00:18.009Z,2.30
2019-01-15T01:02:45.669Z,2.23
2019-01-15T01:05:13.496Z,2.77
2019-01-15T01:07:40.993Z,2.60
2019-01-15T01:10:09.053Z,3.20
2019-01-15T01:12:36.624Z,2.97
2019-01-15T01:15:05.601Z,3.20
2019-01-15T01:17:32.937Z,3.00
2019-01-15T01:20:00.525Z,2.90
2019-01-15T01:22:27.760Z,3.17
2019-01-15T01:24:55.012Z,3.50
2019-01-15T01:27:22.265Z,2.93
2019-01-15T01:29:49.544Z,3.03
2019-01-15T01:32:16.793Z,3.27
2019-01-15T01:34:44.065Z,3.37
2019-01-15T01:37:11.324Z,3.43
2019-01-15T01:39:38.680Z,3.60
2019-01-15T01:42:06.409Z,3.50
2019-01-15T01:44:33.678Z,3.80
2019-01-15T01:47:01.024Z,3.27
2019-01-15T01:49:28.282Z,3.67
2019-01-15T01:51:55.641Z,3.53
2019-01-15T01:54:22.898Z,4.00
2019-01-15T01:56:50.941Z,4.47
2019-01-15T01:59:18.233Z,4.13
2019-01-15T02:01:45.459Z,4.10
2019-01-15T02:04:12.905Z,4.37
2019-01-15T02:06:40.145Z,3.73
2019-01-15T02:09:09.970Z,4.27
2019-01-15T02:11:37.530Z,5.50
2019-01-15T02:14:04.985Z,5.30
2019-01-15T02:16:32.108Z,6.80
2019-01-15T02:18:59.722Z,5.67
2019-01-15T02:21:27.249Z,6.00
2019-01-15T02:23:54.498Z,6.40
2019-01-15T02:26:21.721Z,6.30
2019-01-15T02:28:48.978Z,6.70
2019-01-15T02:31:16.550Z,7.70
2019-01-15T02:33:44.122Z,7.00
2019-01-15T02:36:11.685Z,8.37
2019-01-15T02:38:38.942Z,8.00
2019-01-15T02:41:06.209Z,8.90
2019-01-15T02:43:33.384Z,9.10
2019-01-15T02:46:01.001Z,8.33
2019-01-15T02:48:28.238Z,9.27
2019-01-15T02:50:55.605Z,7.90
2019-01-15T02:53:23.167Z,8.40
2019-01-15T02:55:50.437Z,9.50
2019-01-15T02:58:17.701Z,9.00
2019-01-15T03:00:45.226Z,9.77
2019-01-15T03:03:12.471Z,9.20
2019-01-15T03:05:39.826Z,9.00
2019-01-15T03:08:07.086Z,8.97
2019-01-15T03:10:34.342Z,10.10
2019-01-15T03:13:01.566Z,8.93
2019-01-15T03:15:29.141Z,9.30
2019-01-15T03:17:56.361Z,9.10
2019-01-15T03:20:23.850Z,10.67
2019-01-15T03:22:51.073Z,10.33
2019-01-15T03:25:18.979Z,10.93
2019-01-15T03:27:46.295Z,10.80
2019-01-15T03:30:16.427Z,10.17
2019-01-15T03:32:44.124Z,9.87
2019-01-15T03:35:11.766Z,10.37
2019-01-15T03:37:39.329Z,10.33
2019-01-15T03:40:11.468Z,10.63
2019-01-15T03:42:38.951Z,10.47
2019-01-15T03:45:06.418Z,10.47
2019-01-15T03:47:34.000Z,11.77
2019-01-15T03:50:01.341Z,11.10
2019-01-15T03:52:28.670Z,11.07
2019-01-15T03:54:55.993Z,10.63
2019-01-15T03:57:23.586Z,10.00
2019-01-15T03:59:50.857Z,11.07
2019-01-15T04:02:18.188Z,10.60
2019-01-15T04:04:45.861Z,10.43
2019-01-15T04:07:13.716Z,10.63
2019-01-15T04:09:41.682Z,10.63
2019-01-15T04:12:09.028Z,10.67
2019-01-15T04:14:36.596Z,11.17
2019-01-15T04:17:03.858Z,10.43
2019-01-15T04:19:31.094Z,10.67
2019-01-15T04:21:58.357Z,11.00
2019-01-15T04:24:25.612Z,10.43
2019-01-15T04:26:53.320Z,9.90
2019-01-15T04:29:20.572Z,9.63
2019-01-15T04:31:48.516Z,9.83
2019-01-15T04:34:15.777Z,10.03
2019-01-15T04:36:43.002Z,9.63
2019-01-15T04:39:10.550Z,10.27
2019-01-15T04:41:37.788Z,10.40
2019-01-15T04:44:05.360Z,9.87
2019-01-15T04:46:32.593Z,10.40
2019-01-15T04:49:00.185Z,9.53
2019-01-15T04:51:27.833Z,11.17
2019-01-15T04:53:55.101Z,10.63
2019-01-15T04:56:22.330Z,10.60
2019-01-15T04:58:49.889Z,10.80
2019-01-15T05:01:17.210Z,11.40
2019-01-15T05:03:44.808Z,10.70
2019-01-15T05:06:12.571Z,11.33
2019-01-15T05:08:40.130Z,9.70
2019-01-15T05:11:07.364Z,10.60
2019-01-15T05:13:34.624Z,11.77
2019-01-15T05:16:02.196Z,11.47
2019-01-15T05:18:29.453Z,12.67
2019-01-15T05:20:57.009Z,12.53
2019-01-15T05:23:24.578Z,12.50
2019-01-15T05:25:51.905Z,13.67
2019-01-15T05:28:19.266Z,13.40
2019-01-15T05:30:46.621Z,12.00
2019-01-15T05:33:13.858Z,12.50
2019-01-15T05:35:41.123Z,13.03
2019-01-15T05:38:08.689Z,12.73
2019-01-15T05:40:36.248Z,11.50
2019-01-15T05:43:03.678Z,11.67
2019-01-15T05:45:36.148Z,12.63
2019-01-15T05:48:07.584Z,13.17
2019-01-15T05:50:50.425Z,13.17
2019-01-15T05:53:18.005Z,12.40
2019-01-15T05:55:45.262Z,11.57
2019-01-15T05:58:12.496Z,11.97
2019-01-15T06:00:39.748Z,11.70
2019-01-15T06:03:06.984Z,12.70
2019-01-15T06:05:34.244Z,12.27
2019-01-15T06:08:01.480Z,13.47
2019-01-15T06:10:29.108Z,11.93
2019-01-15T06:12:56.357Z,12.47
2019-01-15T06:15:23.626Z,11.03
2019-01-15T06:17:50.860Z,11.00
2019-01-15T06:20:18.128Z,11.73
2019-01-15T06:22:45.617Z,11.80
2019-01-15T06:25:13.199Z,11.27
2019-01-15T06:27:40.852Z,12.40
2019-01-15T06:30:11.008Z,11.53
2019-01-15T06:32:38.253Z,13.00
2019-01-15T06:35:05.625Z,11.20
2019-01-15T06:37:32.865Z,10.97
2019-01-15T06:40:00.521Z,10.63
2019-01-15T06:42:27.762Z,11.30
2019-01-15T06:44:55.331Z,11.20
2019-01-15T06:47:23.868Z,11.60
2019-01-15T06:49:51.165Z,11.17
2019-01-15T06:52:18.512Z,11.30
2019-01-15T06:54:45.789Z,11.27
2019-01-15T06:57:13.155Z,11.30
2019-01-15T06:59:40.431Z,11.43
2019-01-15T07:02:07.908Z,10.73
2019-01-15T07:04:35.189Z,10.03
2019-01-15T07:07:02.432Z,10.33
2019-01-15T07:09:29.704Z,9.63
2019-01-15T07:11:57.225Z,10.00
2019-01-15T07:14:24.781Z,9.10
2019-01-15T07:16:52.348Z,9.70
2019-01-15T07:19:19.907Z,8.80
2019-01-15T07:21:47.461Z,9.20
2019-01-15T07:24:15.433Z,7.80
2019-01-15T07:26:42.994Z,8.10
2019-01-15T07:29:10.236Z,9.63
2019-01-15T07:31:37.502Z,8.37
2019-01-15T07:34:04.753Z,8.80
2019-01-15T07:36:32.018Z,8.83
2019-01-15T07:38:59.263Z,8.03
2019-01-15T07:41:26.535Z,9.27
2019-01-15T07:43:54.161Z,9.10
2019-01-15T07:46:21.737Z,8.60
2019-01-15T07:48:48.980Z,8.73
2019-01-15T07:51:16.240Z,9.10
2019-01-15T07:53:43.781Z,9.10
2019-01-15T07:56:11.341Z,8.67
2019-01-15T07:58:38.662Z,8.70
2019-01-15T08:01:07.497Z,8.57
2019-01-15T08:03:35.658Z,9.70
2019-01-15T08:06:03.034Z,9.70
2019-01-15T08:08:30.307Z,8.57
2019-01-15T08:10:57.564Z,9.40
2019-01-15T08:13:24.793Z,8.73
2019-01-15T08:15:52.052Z,8.90
2019-01-15T08:18:19.317Z,9.03
2019-01-15T08:20:46.569Z,8.67
2019-01-15T08:23:13.845Z,9.50
2019-01-15T08:25:41.116Z,10.53
2019-01-15T08:28:08.693Z,9.47
2019-01-15T08:30:36.645Z,9.23
2019-01-15T08:33:04.089Z,9.63
2019-01-15T08:35:33.388Z,8.73
2019-01-15T08:38:00.693Z,9.30
2019-01-15T08:40:28.023Z,9.70
2019-01-15T08:42:55.274Z,9.63
2019-01-15T08:45:22.778Z,10.03
2019-01-15T08:47:51.972Z,9.80
2019-01-15T08:50:21.313Z,10.17
2019-01-15T08:52:48.600Z,10.50
2019-01-15T08:55:15.869Z,11.37
2019-01-15T08:57:43.393Z,11.33
2019-01-15T09:00:11.952Z,11.47
2019-01-15T09:02:39.206Z,11.27
2019-01-15T09:05:06.591Z,12.47
2019-01-15T09:07:34.053Z,11.90
2019-01-15T09:10:01.598Z,12.87
2019-01-15T09:12:28.949Z,11.97
2019-01-15T09:14:56.781Z,12.50
2019-01-15T09:17:24.272Z,13.30
2019-01-15T09:19:51.521Z,13.30
2019-01-15T09:22:18.829Z,12.97
2019-01-15T09:24:46.052Z,13.27
2019-01-15T09:27:13.432Z,13.87
2019-01-15T09:29:41.052Z,13.80
2019-01-15T09:32:08.325Z,14.30
2019-01-15T09:34:35.572Z,15.27
2019-01-15T09:37:04.835Z,14.20
2019-01-15T09:39:32.201Z,15.90
2019-01-15T09:41:59.497Z,15.00
2019-01-15T09:44:33.841Z,15.50
2019-01-15T09:46:56.208Z,16.40
2019-01-15T09:49:23.469Z,14.77
2019-01-15T09:51:52.031Z,15.30
2019-01-15T09:54:19.601Z,15.50
2019-01-15T09:56:47.162Z,15.67
2019-01-15T09:59:14.821Z,14.67
2019-01-15T10:01:42.395Z,15.37
2019-01-15T10:04:09.654Z,14.83
2019-01-15T10:06:37.295Z,15.40
2019-01-15T10:09:08.140Z,14.47
2019-01-15T10:11:35.461Z,16.50
2019-01-15T10:14:02.945Z,15.23
2019-01-15T10:16:30.208Z,14.73
2019-01-15T10:18:57.464Z,14.87
2019-01-15T10:21:24.832Z,15.00
2019-01-15T10:23:52.115Z,15.27
2019-01-15T10:26:19.383Z,15.00
2019-01-15T10:28:46.669Z,14.03
2019-01-15T10:32:08.086Z,14.67
2019-01-15T10:34:37.589Z,13.27
2019-01-15T10:37:04.182Z,14.50
2019-01-15T10:39:31.527Z,15.33
2019-01-15T10:42:00.798Z,14.87
2019-01-15T10:44:28.128Z,14.97
2019-01-15T10:46:55.405Z,14.10
2019-01-15T10:49:22.937Z,15.37
2019-01-15T10:51:50.209Z,14.80
2019-01-15T10:54:17.477Z,14.23
2019-01-15T10:56:44.745Z,13.67
2019-01-15T10:59:11.988Z,13.87
2019-01-15T11:01:39.253Z,12.63
2019-01-15T11:04:06.492Z,11.70
2019-01-15T11:06:34.004Z,11.43
2019-01-15T11:09:01.392Z,11.00
2019-01-15T11:11:28.645Z,11.03
2019-01-15T11:13:56.272Z,9.23
2019-01-15T11:16:23.944Z,9.70
2019-01-15T11:18:51.909Z,9.17
2019-01-15T11:21:19.465Z,9.93
2019-01-15T11:23:46.768Z,9.43
2019-01-15T11:26:14.051Z,9.20
2019-01-15T11:28:41.348Z,9.80
2019-01-15T11:31:08.877Z,9.20
2019-01-15T11:33:36.152Z,8.97
2019-01-15T11:36:03.590Z,8.63
2019-01-15T11:38:30.869Z,9.10
2019-01-15T11:40:58.113Z,8.63
2019-01-15T11:43:25.650Z,8.67
2019-01-15T11:45:52.893Z,8.60
2019-01-15T11:48:20.488Z,9.07
2019-01-15T11:50:47.834Z,9.03
2019-01-15T11:53:15.101Z,8.73
2019-01-15T11:55:42.646Z,8.47
2019-01-15T11:58:10.010Z,9.27
2019-01-15T12:00:44.392Z,9.13
2019-01-15T12:03:29.895Z,9.33
2019-01-15T12:06:23.397Z,8.87
2019-01-15T12:09:12.065Z,9.13
2019-01-15T12:11:50.268Z,8.67
2019-01-15T12:14:43.469Z,9.03
2019-01-15T12:17:32.893Z,9.97
2019-01-15T12:20:20.830Z,9.40
2019-01-15T12:23:06.869Z,9.80
2019-01-15T12:25:52.293Z,10.57
2019-01-15T12:28:39.140Z,9.67
2019-01-15T12:31:35.129Z,9.70
2019-01-15T12:34:20.699Z,10.80
2019-01-15T12:37:07.545Z,10.17
2019-01-15T12:40:12.446Z,10.87
2019-01-15T12:42:59.233Z,10.37
2019-01-15T12:45:58.726Z,11.00
2019-01-15T12:48:54.469Z,10.33
2019-01-15T12:51:44.122Z,11.73
2019-01-15T12:54:22.308Z,11.23
2019-01-15T12:57:09.158Z,10.63
2019-01-15T12:59:54.826Z,10.33
2019-01-15T13:02:39.281Z,10.17
2019-01-15T13:05:29.433Z,10.60
2019-01-15T13:08:20.777Z,9.63
2019-01-15T13:11:07.673Z,10.30
2019-01-15T13:14:09.608Z,10.63
2019-01-15T13:16:55.216Z,9.93
2019-01-15T13:19:40.797Z,20.50
2019-01-15T13:22:46.009Z,10.20
2019-01-15T13:25:47.921Z,23.70
2019-01-15T13:28:43.568Z,10.70
2019-01-15T13:31:36.144Z,8.47
2019-01-15T13:34:26.268Z,9.27
2019-01-15T13:37:24.949Z,8.30
2019-01-15T13:40:14.509Z,7.63
2019-01-15T13:43:00.228Z,8.63
2019-01-15T13:45:45.750Z,8.90
2019-01-15T13:48:29.553Z,8.07
2019-01-15T13:51:19.161Z,7.47
2019-01-15T13:54:13.385Z,7.07
2019-01-15T13:56:59.197Z,7.37
2019-01-15T13:59:49.085Z,7.23
2019-01-15T14:02:39.886Z,7.30
2019-01-15T14:05:33.392Z,6.93
2019-01-15T14:08:18.720Z,7.77
2019-01-15T14:10:55.280Z,7.57
2019-01-15T14:13:31.569Z,7.27
2019-01-15T14:16:11.977Z,7.63
2019-01-15T14:19:13.013Z,8.20
2019-01-15T14:21:59.824Z,7.93
2019-01-15T14:24:46.693Z,8.07
2019-01-15T14:27:32.067Z,8.27
2019-01-15T14:30:17.496Z,8.50
2019-01-15T14:32:59.697Z,9.03
2019-01-15T14:35:37.665Z,8.33
2019-01-15T14:38:17.288Z,7.90
2019-01-15T14:41:02.619Z,8.57
2019-01-15T14:44:04.268Z,7.87
2019-01-15T14:46:54.011Z,7.87
2019-01-15T14:49:49.926Z,7.60
2019-01-15T14:52:39.448Z,7.73
2019-01-15T14:55:23.222Z,7.57
2019-01-15T14:58:12.888Z,6.90
2019-01-15T15:01:05.713Z,7.60
2019-01-15T15:03:39.834Z,7.43
2019-01-15T15:06:20.033Z,6.87
2019-01-15T15:09:09.464Z,6.80
2019-01-15T15:12:08.704Z,6.20
2019-01-15T15:14:55.197Z,6.57
2019-01-15T15:17:40.501Z,6.83
2019-01-15T15:20:31.146Z,6.73
2019-01-15T15:23:30.204Z,7.33
2019-01-15T15:26:14.612Z,6.17
2019-01-15T15:28:55.514Z,6.20
2019-01-15T15:31:54.557Z,6.13
2019-01-15T15:34:31.945Z,6.23
2019-01-15T15:37:17.489Z,6.00
2019-01-15T15:40:16.136Z,6.40
2019-01-15T15:43:11.117Z,5.80
2019-01-15T15:45:57.921Z,6.10
2019-01-15T15:48:48.122Z,5.97
2019-01-15T15:51:46.889Z,5.37
2019-01-15T15:54:32.346Z,5.00
2019-01-15T15:57:15.970Z,5.57
2019-01-15T16:00:01.650Z,5.57
2019-01-15T16:02:51.669Z,5.10
2019-01-15T16:05:47.346Z,5.30
2019-01-15T16:08:36.953Z,5.40
2019-01-15T16:11:26.572Z,5.70
2019-01-15T16:14:22.013Z,5.60
2019-01-15T16:17:11.344Z,5.67
2019-01-15T16:20:03.268Z,5.60
2019-01-15T16:22:56.073Z,5.70
2019-01-15T16:25:58.051Z,5.53
2019-01-15T16:28:40.289Z,5.97
2019-01-15T16:31:25.781Z,5.83
2019-01-15T16:34:12.630Z,6.00
2019-01-15T16:37:02.845Z,4.83
2019-01-15T16:39:49.597Z,5.40
2019-01-15T16:42:28.536Z,5.27
2019-01-15T16:45:28.324Z,5.37
2019-01-15T16:48:30.120Z,5.63
2019-01-15T16:51:14.281Z,5.60
2019-01-15T16:53:59.032Z,6.07
2019-01-15T16:56:42.744Z,6.37
2019-01-15T16:59:23.397Z,5.90
2019-01-15T17:02:09.162Z,5.53
2019-01-15T17:04:54.937Z,5.90
2019-01-15T17:07:47.561Z,5.90
2019-01-15T17:10:33.245Z,6.13
2019-01-15T17:13:18.754Z,6.00
2019-01-15T17:16:00.056Z,5.37
2019-01-15T17:18:41.088Z,6.30
2019-01-15T17:21:34.861Z,6.43
2019-01-15T17:24:21.969Z,5.80
2019-01-15T17:27:09.089Z,6.07
2019-01-15T17:30:07.108Z,5.63
2019-01-15T17:32:42.509Z,6.53
2019-01-15T17:35:18.108Z,6.40
2019-01-15T17:38:03.941Z,5.60
2019-01-15T17:40:49.453Z,6.03
2019-01-15T17:43:48.077Z,6.70
2019-01-15T17:46:22.277Z,8.47
2019-01-15T17:49:08.424Z,11.77
2019-01-15T17:52:03.842Z,11.00
2019-01-15T17:54:49.218Z,7.40
2019-01-15T17:57:34.809Z,7.97
2019-01-15T18:00:27.484Z,9.57
2019-01-15T18:03:11.785Z,22.27
2019-01-15T18:05:57.141Z,10.80
2019-01-15T18:08:43.962Z,6.50
2019-01-15T18:11:33.472Z,9.57
2019-01-15T18:14:18.011Z,7.17
2019-01-15T18:17:04.005Z,6.67
2019-01-15T18:19:56.643Z,11.37
2019-01-15T18:22:42.325Z,14.17
2019-01-15T18:25:47.369Z,13.70
2019-01-15T18:28:32.940Z,8.20
2019-01-15T18:31:25.646Z,5.97
2019-01-15T18:34:12.617Z,6.40
2019-01-15T18:36:58.164Z,7.57
2019-01-15T18:39:43.582Z,9.53
2019-01-15T18:42:39.382Z,7.50
2019-01-15T18:45:30.293Z,7.77
2019-01-15T18:48:16.076Z,6.30
2019-01-15T18:51:12.004Z,6.80
2019-01-15T18:54:07.792Z,8.50
2019-01-15T18:57:06.833Z,8.03
2019-01-15T18:59:52.311Z,7.20
2019-01-15T19:02:38.805Z,6.30
2019-01-15T19:05:16.769Z,7.37
2019-01-15T19:07:54.936Z,7.40
2019-01-15T19:10:45.100Z,7.77
2019-01-15T19:13:24.644Z,8.50
2019-01-15T19:16:27.122Z,7.00
2019-01-15T19:19:15.361Z,9.23
2019-01-15T19:21:59.157Z,7.00
2019-01-15T19:24:44.457Z,6.70
2019-01-15T19:27:36.676Z,8.13
2019-01-15T19:30:24.754Z,7.20
2019-01-15T19:33:17.811Z,7.57
2019-01-15T19:36:04.634Z,7.17
2019-01-15T19:38:50.609Z,6.17
2019-01-15T19:41:40.617Z,6.53
2019-01-15T19:44:26.215Z,7.00
2019-01-15T19:47:11.499Z,7.73
2019-01-15T19:49:54.497Z,7.63
2019-01-15T19:52:49.937Z,7.70
2019-01-15T19:55:42.966Z,7.63
2019-01-15T19:58:23.921Z,8.00
2019-01-15T20:01:19.996Z,8.07
2019-01-15T20:04:04.018Z,10.00
2019-01-15T20:06:57.234Z,7.63
2019-01-15T20:09:44.398Z,8.70
2019-01-15T20:12:28.016Z,8.90
2019-01-15T20:15:32.805Z,7.87
2019-01-15T20:18:20.112Z,7.27
2019-01-15T20:21:06.952Z,7.87
2019-01-15T20:23:54.085Z,7.20
2019-01-15T20:26:32.821Z,7.53
2019-01-15T20:29:18.073Z,7.63
2019-01-15T20:32:01.357Z,6.77
2019-01-15T20:34:51.309Z,7.53
2019-01-15T20:37:37.998Z,6.80
2019-01-15T20:40:15.801Z,7.47
2019-01-15T20:43:02.913Z,6.40
2019-01-15T20:45:40.384Z,7.10
2019-01-15T20:48:34.030Z,6.20
2019-01-15T20:51:07.581Z,7.57
2019-01-15T20:53:58.689Z,7.70
2019-01-15T20:56:44.373Z,7.80
2019-01-15T20:59:31.738Z,8.43
2019-01-15T21:02:22.857Z,8.17
2019-01-15T21:05:15.233Z,8.60
2019-01-15T21:07:57.496Z,7.73
2019-01-15T21:10:43.781Z,8.87
2019-01-15T21:13:30.536Z,8.23
2019-01-15T21:16:17.064Z,8.37
2019-01-15T21:19:04.202Z,8.13
2019-01-15T21:21:53.529Z,8.30
2019-01-15T21:24:38.724Z,9.60
2019-01-15T21:27:44.080Z,8.90
2019-01-15T21:30:34.057Z,8.87
2019-01-15T21:33:12.761Z,9.97
2019-01-15T21:35:59.600Z,9.27
2019-01-15T21:38:45.076Z,9.13
2019-01-15T21:41:27.650Z,9.07
2019-01-15T21:44:12.846Z,9.60
2019-01-15T21:47:08.624Z,9.40
2019-01-15T21:49:47.996Z,8.60
2019-01-15T21:52:38.085Z,8.47
2019-01-15T21:55:21.624Z,8.70
2019-01-15T21:58:22.868Z,8.63
2019-01-15T22:01:25.476Z,9.30
2019-01-15T22:04:21.689Z,9.40
2019-01-15T22:07:10.822Z,9.37
2019-01-15T22:09:58.005Z,9.60
2019-01-15T22:12:55.929Z,9.63
2019-01-15T22:15:34.969Z,10.07
2019-01-15T22:18:18.047Z,10.97
2019-01-15T22:21:04.226Z,9.90
2019-01-15T22:24:05.960Z,9.73
2019-01-15T22:27:11.002Z,9.93
2019-01-15T22:30:15.936Z,10.43
2019-01-15T22:33:14.712Z,9.60
2019-01-15T22:36:02.625Z,8.57
2019-01-15T22:38:48.104Z,9.93
2019-01-15T22:41:33.785Z,8.77
2019-01-15T22:44:12.473Z,8.93
2019-01-15T22:46:57.658Z,9.07
2019-01-15T22:49:53.690Z,8.17
2019-01-15T22:52:48.466Z,7.93
2019-01-15T22:55:35.537Z,7.33
2019-01-15T22:58:28.185Z,6.93
2019-01-15T23:01:15.609Z,7.50
2019-01-15T23:04:05.372Z,7.20
2019-01-15T23:07:10.527Z,7.33
2019-01-15T23:09:50.424Z,6.53
2019-01-15T23:12:34.829Z,7.03
2019-01-15T23:15:20.678Z,6.30
2019-01-15T23:18:16.113Z,6.40
2019-01-15T23:21:14.644Z,5.63
2019-01-15T23:24:03.635Z,6.00
2019-01-15T23:26:54.756Z,5.90
2019-01-15T23:29:56.456Z,6.13
2019-01-15T23:32:41.597Z,6.63
2019-01-15T23:35:27.013Z,6.40
2019-01-15T23:38:06.101Z,6.37
2019-01-15T23:40:52.017Z,6.40
2019-01-15T23:43:37.642Z,6.50
2019-01-15T23:46:36.177Z,6.20
2019-01-15T23:49:25.946Z,5.60
2019-01-15T23:52:07.097Z,6.43
2019-01-15T23:55:10.544Z,5.87
2019-01-15T23:57:58.456Z,6.20
